createdAt,value
2018-05-16T00:02:27.066Z,10.40
2018-05-16T00:05:29.464Z,11.43
2018-05-16T00:08:31.540Z,10.13
2018-05-16T00:11:33.646Z,13.47
2018-05-16T00:14:37.744Z,11.90
2018-05-16T00:17:39.776Z,10.60
2018-05-16T00:20:42.019Z,13.67
2018-05-16T00:23:43.933Z,11.03
2018-05-16T00:26:46.020Z,10.83
2018-05-16T00:29:48.048Z,12.70
2018-05-16T00:32:50.194Z,12.50
2018-05-16T00:35:52.251Z,12.80
2018-05-16T00:38:55.424Z,11.03
2018-05-16T00:41:57.483Z,10.47
2018-05-16T00:44:59.561Z,12.67
2018-05-16T00:48:02.631Z,12.67
2018-05-16T00:51:13.892Z,11.10
2018-05-16T00:54:15.959Z,11.87
2018-05-16T00:57:17.980Z,14.60
2018-05-16T01:00:20.137Z,12.00
2018-05-16T01:03:22.088Z,11.93
2018-05-16T01:06:24.180Z,12.47
2018-05-16T01:09:26.228Z,14.23
2018-05-16T01:12:28.312Z,12.70
2018-05-16T01:15:30.396Z,12.00
2018-05-16T01:18:32.567Z,13.57
2018-05-16T01:21:34.628Z,15.63
2018-05-16T01:24:36.664Z,15.27
2018-05-16T01:27:39.751Z,16.13
2018-05-16T01:30:42.880Z,25.53
2018-05-16T01:33:44.925Z,17.10
2018-05-16T01:36:47.002Z,17.40
2018-05-16T01:39:49.200Z,16.20
2018-05-16T01:42:51.242Z,17.03
2018-05-16T01:45:53.312Z,16.97
2018-05-16T01:49:04.569Z,18.57
2018-05-16T01:52:06.663Z,18.07
2018-05-16T01:55:08.756Z,19.00
2018-05-16T01:58:10.919Z,18.63
2018-05-16T02:01:12.989Z,19.20
2018-05-16T02:04:15.109Z,20.93
2018-05-16T02:07:17.250Z,17.03
2018-05-16T02:10:19.370Z,17.30
2018-05-16T02:13:21.323Z,16.43
2018-05-16T02:16:23.391Z,15.63
2018-05-16T02:19:25.445Z,15.27
2018-05-16T02:22:27.559Z,15.53
2018-05-16T02:25:29.731Z,15.47
2018-05-16T02:28:31.798Z,14.27
2018-05-16T02:31:33.919Z,14.77
2018-05-16T02:34:36.040Z,14.93
2018-05-16T02:37:38.211Z,14.30
2018-05-16T02:40:40.260Z,16.83
2018-05-16T02:43:43.074Z,14.83
2018-05-16T02:46:45.112Z,16.50
2018-05-16T02:49:47.215Z,15.53
2018-05-16T02:52:49.250Z,14.50
2018-05-16T02:55:51.344Z,18.17
2018-05-16T02:58:53.425Z,17.50
2018-05-16T03:01:55.584Z,17.47
2018-05-16T03:04:57.676Z,18.63
2018-05-16T03:07:59.836Z,17.13
2018-05-16T03:11:01.883Z,16.73
2018-05-16T03:14:04.060Z,15.83
2018-05-16T03:17:06.129Z,15.00
2018-05-16T03:20:08.117Z,16.27
2018-05-16T03:23:10.708Z,11.23
2018-05-16T03:26:14.056Z,9.63
2018-05-16T03:29:16.110Z,10.40
2018-05-16T03:32:18.179Z,8.30
2018-05-16T03:35:21.325Z,11.00
2018-05-16T03:38:23.386Z,11.00
2018-05-16T03:41:25.551Z,8.43
2018-05-16T03:44:27.617Z,7.40
2018-05-16T03:47:29.792Z,8.50
2018-05-16T03:50:31.875Z,8.40
2018-05-16T03:53:34.030Z,9.50
2018-05-16T03:56:36.183Z,11.20
2018-05-16T04:00:53.413Z,10.40
2018-05-16T04:04:06.572Z,13.83
2018-05-16T04:07:08.714Z,10.40
2018-05-16T04:10:10.888Z,10.77
2018-05-16T04:13:14.504Z,10.30
2018-05-16T04:16:16.556Z,12.03
2018-05-16T04:19:18.716Z,11.53
2018-05-16T04:22:20.818Z,14.23
2018-05-16T04:25:23.068Z,12.33
2018-05-16T04:28:25.127Z,13.43
2018-05-16T04:31:27.254Z,13.43
2018-05-16T04:34:29.316Z,13.57
2018-05-16T04:37:32.379Z,15.97
2018-05-16T04:40:34.448Z,18.00
2018-05-16T04:43:36.542Z,16.77
2018-05-16T04:46:38.669Z,17.87
2018-05-16T04:49:40.713Z,24.23
2018-05-16T04:52:44.513Z,22.77
2018-05-16T04:55:46.605Z,22.17
2018-05-16T04:58:48.571Z,21.37
2018-05-16T05:01:51.712Z,21.97
2018-05-16T05:04:53.860Z,18.83
2018-05-16T05:07:55.949Z,20.70
2018-05-16T05:10:59.668Z,17.60
2018-05-16T05:14:01.629Z,16.80
2018-05-16T05:17:04.844Z,17.50
2018-05-16T05:20:06.975Z,21.13
2018-05-16T05:23:08.993Z,18.23
2018-05-16T05:26:11.088Z,15.50
2018-05-16T05:29:14.178Z,17.70
2018-05-16T05:32:16.261Z,17.13
2018-05-16T05:35:18.493Z,21.60
2018-05-16T05:38:20.641Z,19.90
2018-05-16T05:41:22.675Z,18.73
2018-05-16T05:44:25.991Z,19.27
2018-05-16T05:47:28.020Z,17.27
2018-05-16T05:50:30.107Z,16.50
2018-05-16T05:53:32.191Z,19.77
2018-05-16T05:56:34.287Z,15.57
2018-05-16T05:59:36.310Z,17.80
2018-05-16T06:02:38.334Z,13.60
2018-05-16T06:05:40.550Z,14.47
2018-05-16T06:08:42.638Z,14.17
2018-05-16T06:11:44.679Z,15.43
2018-05-16T06:14:46.761Z,18.57
2018-05-16T06:17:48.937Z,16.23
2018-05-16T06:20:50.959Z,13.57
2018-05-16T06:23:53.129Z,14.90
2018-05-16T06:26:55.155Z,15.07
2018-05-16T06:29:57.315Z,15.00
2018-05-16T06:32:59.395Z,15.70
2018-05-16T06:36:01.420Z,16.13
2018-05-16T06:39:04.562Z,16.07
2018-05-16T06:42:06.612Z,14.70
2018-05-16T06:45:08.687Z,17.50
2018-05-16T06:48:10.868Z,16.23
2018-05-16T06:51:12.889Z,18.40
2018-05-16T06:54:14.860Z,19.27
2018-05-16T06:57:17.015Z,16.93
2018-05-16T07:00:19.161Z,16.00
2018-05-16T07:03:21.128Z,17.50
2018-05-16T07:06:23.164Z,16.90
2018-05-16T07:09:25.298Z,17.97
2018-05-16T07:12:27.284Z,15.33
2018-05-16T07:15:29.375Z,13.60
2018-05-16T07:18:31.533Z,14.87
2018-05-16T07:21:35.252Z,15.87
2018-05-16T07:24:37.527Z,13.63
2018-05-16T07:27:39.625Z,15.40
2018-05-16T07:30:41.706Z,12.73
2018-05-16T07:33:43.879Z,14.30
2018-05-16T07:36:45.947Z,12.33
2018-05-16T07:39:48.099Z,13.27
2018-05-16T07:42:50.136Z,9.83
2018-05-16T07:45:52.205Z,11.00
2018-05-16T07:48:54.389Z,11.43
2018-05-16T07:51:56.427Z,11.70
2018-05-16T07:54:58.539Z,10.67
2018-05-16T07:58:00.885Z,13.73
2018-05-16T08:01:05.218Z,10.13
2018-05-16T08:04:07.255Z,10.83
2018-05-16T08:07:09.361Z,11.17
2018-05-16T08:10:11.420Z,9.57
2018-05-16T08:13:13.604Z,10.67
2018-05-16T08:16:15.756Z,10.73
2018-05-16T08:19:17.833Z,9.70
2018-05-16T08:22:19.906Z,11.23
2018-05-16T08:25:21.994Z,9.77
2018-05-16T08:28:24.133Z,8.83
2018-05-16T08:31:26.198Z,9.50
2018-05-16T08:34:28.349Z,9.70
2018-05-16T08:37:30.511Z,10.67
2018-05-16T08:40:32.631Z,11.80
2018-05-16T08:43:34.696Z,11.70
2018-05-16T08:46:36.979Z,12.30
2018-05-16T08:49:39.011Z,11.70
2018-05-16T08:52:41.108Z,11.60
2018-05-16T08:55:43.164Z,9.97
2018-05-16T08:58:45.253Z,10.00
2018-05-16T09:01:48.696Z,7.80
2018-05-16T09:04:50.958Z,7.97
2018-05-16T09:07:53.208Z,6.07
2018-05-16T09:10:55.400Z,6.00
2018-05-16T09:13:57.513Z,7.90
2018-05-16T09:16:59.612Z,7.17
2018-05-16T09:20:01.841Z,5.23
2018-05-16T09:23:03.940Z,3.80
2018-05-16T09:26:06.037Z,4.87
2018-05-16T09:29:08.185Z,3.90
2018-05-16T09:32:10.241Z,3.50
2018-05-16T09:35:12.373Z,3.27
2018-05-16T09:38:14.571Z,3.70
2018-05-16T09:41:17.119Z,4.00
2018-05-16T09:44:19.642Z,2.90
2018-05-16T09:47:21.736Z,3.23
2018-05-16T09:50:23.762Z,3.40
2018-05-16T09:53:25.804Z,3.50
2018-05-16T09:56:28.819Z,3.80
2018-05-16T09:59:30.914Z,3.30
2018-05-16T10:02:32.929Z,3.23
2018-05-16T10:05:35.149Z,3.47
2018-05-16T10:08:37.196Z,2.60
2018-05-16T10:11:39.284Z,3.63
2018-05-16T10:14:41.340Z,3.77
2018-05-16T10:17:43.449Z,4.27
2018-05-16T10:20:45.461Z,4.50
2018-05-16T10:23:48.977Z,4.07
2018-05-16T10:26:51.072Z,4.17
2018-05-16T10:29:53.254Z,3.70
2018-05-16T10:32:55.263Z,5.03
2018-05-16T10:35:57.378Z,4.60
2018-05-16T10:38:59.442Z,9.90
2018-05-16T10:42:01.532Z,5.13
2018-05-16T10:45:03.585Z,6.90
2018-05-16T10:48:05.659Z,5.87
2018-05-16T10:51:08.724Z,5.67
2018-05-16T10:54:10.780Z,4.57
2018-05-16T10:57:12.937Z,6.30
2018-05-16T11:00:15.104Z,6.50
2018-05-16T11:03:17.327Z,6.70
2018-05-16T11:06:19.376Z,6.47
2018-05-16T11:09:21.444Z,6.33
2018-05-16T11:12:23.524Z,9.37
2018-05-16T11:15:25.558Z,9.27
2018-05-16T11:18:28.630Z,9.67
2018-05-16T11:21:30.741Z,12.27
2018-05-16T11:24:32.705Z,7.13
2018-05-16T11:27:34.767Z,6.47
2018-05-16T11:30:36.848Z,7.40
2018-05-16T11:33:38.943Z,9.63
2018-05-16T11:36:41.058Z,8.07
2018-05-16T11:39:43.109Z,7.47
2018-05-16T11:42:45.285Z,8.03
2018-05-16T11:45:47.324Z,7.87
2018-05-16T11:48:49.391Z,6.37
2018-05-16T11:51:51.419Z,6.23
2018-05-16T11:54:53.496Z,8.53
2018-05-16T11:57:55.605Z,6.27
2018-05-16T12:00:57.692Z,5.93
2018-05-16T12:03:59.733Z,7.13
2018-05-16T12:07:01.816Z,6.53
2018-05-16T12:10:03.860Z,6.07
2018-05-16T12:13:05.899Z,10.33
2018-05-16T12:16:07.943Z,7.37
2018-05-16T12:19:09.932Z,6.57
2018-05-16T12:22:12.040Z,7.23
2018-05-16T12:25:14.072Z,6.47
2018-05-16T12:28:16.188Z,6.10
2018-05-16T12:31:18.429Z,6.17
2018-05-16T12:34:20.616Z,6.67
2018-05-16T12:37:22.763Z,6.20
2018-05-16T12:40:24.822Z,5.67
2018-05-16T12:43:29.563Z,6.33
2018-05-16T12:46:31.716Z,7.00
2018-05-16T12:49:33.797Z,7.03
2018-05-16T12:52:35.789Z,6.07
2018-05-16T12:55:38.890Z,6.83
2018-05-16T12:58:40.967Z,6.83
2018-05-16T13:01:43.078Z,5.53
2018-05-16T13:04:45.189Z,6.57
2018-05-16T13:07:47.240Z,5.67
2018-05-16T13:10:50.152Z,6.20
2018-05-16T13:13:52.215Z,4.80
2018-05-16T13:16:54.246Z,6.10
2018-05-16T13:19:56.328Z,6.13
2018-05-16T13:22:59.546Z,4.40
2018-05-16T13:26:01.612Z,4.43
2018-05-16T13:29:03.686Z,4.97
2018-05-16T13:32:05.761Z,6.47
2018-05-16T13:35:07.869Z,6.73
2018-05-16T13:38:09.984Z,6.87
2018-05-16T13:41:12.137Z,5.57
2018-05-16T13:44:14.295Z,4.70
2018-05-16T13:47:16.347Z,5.10
2018-05-16T13:50:18.588Z,7.20
2018-05-16T13:53:20.678Z,4.70
2018-05-16T13:56:22.723Z,6.53
2018-05-16T13:59:24.912Z,6.30
2018-05-16T14:02:27.083Z,6.27
2018-05-16T14:05:29.332Z,6.80
2018-05-16T14:08:31.468Z,8.67
2018-05-16T14:11:33.609Z,5.33
2018-05-16T14:14:35.720Z,5.20
2018-05-16T14:17:37.771Z,5.57
2018-05-16T14:20:39.798Z,6.63
2018-05-16T14:23:41.812Z,5.77
2018-05-16T14:26:43.775Z,6.03
2018-05-16T14:29:47.142Z,5.00
2018-05-16T14:32:49.208Z,5.60
2018-05-16T14:35:51.339Z,7.60
2018-05-16T14:38:53.423Z,4.50
2018-05-16T14:41:55.487Z,4.30
2018-05-16T14:44:57.636Z,4.77
2018-05-16T14:47:59.722Z,4.83
2018-05-16T14:51:01.962Z,5.27
2018-05-16T14:54:04.095Z,4.70
2018-05-16T14:57:06.339Z,5.57
2018-05-16T15:00:08.360Z,5.13
2018-05-16T15:03:11.000Z,6.80
2018-05-16T15:06:13.171Z,4.43
2018-05-16T15:09:16.336Z,4.20
2018-05-16T15:12:18.649Z,3.93
2018-05-16T15:15:20.797Z,5.20
2018-05-16T15:18:22.923Z,4.67
2018-05-16T15:21:25.195Z,4.20
2018-05-16T15:24:27.309Z,6.00
2018-05-16T15:27:29.580Z,5.40
2018-05-16T15:30:31.526Z,6.00
2018-05-16T15:33:33.720Z,5.60
2018-05-16T15:36:35.872Z,5.10
2018-05-16T15:39:38.107Z,4.53
2018-05-16T15:42:40.317Z,7.17
2018-05-16T15:45:42.448Z,5.00
2018-05-16T15:48:44.419Z,6.27
2018-05-16T15:51:48.033Z,5.37
2018-05-16T15:54:50.476Z,6.13
2018-05-16T15:57:52.528Z,6.20
2018-05-16T16:00:54.920Z,4.90
2018-05-16T16:03:57.055Z,5.10
2018-05-16T16:06:59.361Z,6.00
2018-05-16T16:10:01.507Z,5.53
2018-05-16T16:13:03.582Z,6.13
2018-05-16T16:16:05.660Z,5.00
2018-05-16T16:19:07.874Z,4.53
2018-05-16T16:22:10.111Z,6.77
2018-05-16T16:25:12.144Z,6.10
2018-05-16T16:28:14.233Z,4.90
2018-05-16T16:31:18.249Z,5.87
2018-05-16T16:34:20.215Z,9.30
2018-05-16T16:37:22.291Z,11.83
2018-05-16T16:40:24.678Z,7.33
2018-05-16T16:43:26.830Z,4.53
2018-05-16T16:46:29.219Z,4.70
2018-05-16T16:49:31.699Z,5.40
2018-05-16T16:52:33.863Z,7.77
2018-05-16T16:55:36.225Z,8.10
2018-05-16T16:58:38.505Z,7.00
2018-05-16T17:01:40.783Z,7.17
2018-05-16T17:04:42.987Z,7.57
2018-05-16T17:07:45.036Z,8.50
2018-05-16T17:10:47.921Z,8.27
2018-05-16T17:13:49.976Z,9.27
2018-05-16T17:16:52.048Z,10.63
2018-05-16T17:19:54.416Z,9.77
2018-05-16T17:22:56.588Z,7.13
2018-05-16T17:25:58.851Z,6.43
2018-05-16T17:29:01.048Z,6.43
2018-05-16T17:32:03.144Z,9.67
2018-05-16T17:35:06.149Z,9.10
2018-05-16T17:38:09.679Z,8.50
2018-05-16T17:41:12.067Z,5.33
2018-05-16T17:44:14.151Z,6.37
2018-05-16T17:47:17.175Z,11.93
2018-05-16T17:50:19.202Z,8.90
2018-05-16T17:53:21.872Z,7.00
2018-05-16T17:56:24.151Z,8.57
2018-05-16T17:59:26.231Z,6.30
2018-05-16T18:02:28.323Z,8.17
2018-05-16T18:05:30.743Z,9.23
2018-05-16T18:08:32.835Z,10.27
2018-05-16T18:11:34.877Z,8.23
2018-05-16T18:14:47.439Z,7.87
2018-05-16T18:17:49.431Z,10.33
2018-05-16T18:20:51.452Z,8.27
2018-05-16T18:23:54.666Z,8.33
2018-05-16T18:26:56.998Z,8.83
2018-05-16T18:29:59.058Z,8.30
2018-05-16T18:33:02.424Z,10.60
2018-05-16T18:36:04.537Z,8.63
2018-05-16T18:39:06.594Z,8.30
2018-05-16T18:42:09.053Z,12.27
2018-05-16T18:45:11.156Z,9.57
2018-05-16T18:48:13.476Z,8.83
2018-05-16T18:51:15.879Z,9.27
2018-05-16T18:54:18.199Z,8.10
2018-05-16T18:57:20.496Z,10.43
2018-05-16T19:00:22.779Z,9.10
2018-05-16T19:03:24.753Z,9.00
2018-05-16T19:06:27.273Z,10.03
2018-05-16T19:09:29.680Z,10.77
2018-05-16T19:12:31.791Z,9.07
2018-05-16T19:15:34.217Z,9.30
2018-05-16T19:18:36.347Z,9.23
2018-05-16T19:21:38.384Z,8.73
2018-05-16T19:24:40.344Z,8.80
2018-05-16T19:27:42.384Z,8.93
2018-05-16T19:30:44.495Z,12.80
2018-05-16T19:33:47.424Z,9.47
2018-05-16T19:36:49.491Z,9.40
2018-05-16T19:39:51.706Z,9.37
2018-05-16T19:42:53.964Z,13.77
2018-05-16T19:45:56.221Z,14.93
2018-05-16T19:48:58.440Z,10.03
2018-05-16T19:52:00.557Z,9.57
2018-05-16T19:55:02.919Z,10.10
2018-05-16T19:58:05.037Z,11.83
2018-05-16T20:01:07.064Z,11.63
2018-05-16T20:04:09.568Z,11.30
2018-05-16T20:07:11.785Z,11.27
2018-05-16T20:10:15.327Z,11.23
2018-05-16T20:13:17.431Z,10.30
2018-05-16T20:16:19.543Z,10.57
2018-05-16T20:19:22.929Z,11.37
2018-05-16T20:22:25.056Z,12.10
2018-05-16T20:25:27.090Z,10.83
2018-05-16T20:28:29.208Z,10.80
2018-05-16T20:31:31.207Z,12.73
2018-05-16T20:34:33.199Z,11.30
2018-05-16T20:37:35.168Z,11.23
2018-05-16T20:40:37.408Z,12.17
2018-05-16T20:43:39.620Z,14.93
2018-05-16T20:46:41.696Z,11.00
2018-05-16T20:49:43.820Z,11.97
2018-05-16T20:52:45.936Z,12.33
2018-05-16T20:55:48.056Z,12.43
2018-05-16T20:58:50.205Z,11.80
2018-05-16T21:01:52.232Z,14.93
2018-05-16T21:04:54.383Z,13.93
2018-05-16T21:07:56.396Z,14.30
2018-05-16T21:10:58.597Z,13.60
2018-05-16T21:14:00.603Z,15.07
2018-05-16T21:17:02.668Z,14.57
2018-05-16T21:20:04.892Z,12.80
2018-05-16T21:23:06.953Z,12.93
2018-05-16T21:26:09.056Z,14.53
2018-05-16T21:29:11.170Z,12.70
2018-05-16T21:32:14.287Z,12.67
2018-05-16T21:35:16.336Z,12.23
2018-05-16T21:38:18.516Z,14.13
2018-05-16T21:41:20.504Z,13.03
2018-05-16T21:44:22.511Z,12.97
2018-05-16T21:47:24.592Z,11.37
2018-05-16T21:50:26.660Z,12.43
2018-05-16T21:53:28.731Z,13.13
2018-05-16T21:56:30.675Z,12.43
2018-05-16T21:59:32.759Z,13.60
2018-05-16T22:02:34.811Z,12.47
2018-05-16T22:05:36.947Z,16.87
2018-05-16T22:08:40.020Z,15.53
2018-05-16T22:11:42.052Z,16.13
2018-05-16T22:14:49.116Z,15.33
2018-05-16T22:17:51.324Z,16.50
2018-05-16T22:20:53.391Z,16.57
2018-05-16T22:23:55.435Z,15.97
2018-05-16T22:26:57.583Z,16.53
2018-05-16T22:29:59.979Z,15.57
2018-05-16T22:33:07.897Z,17.07
2018-05-16T22:36:15.729Z,16.27
2018-05-16T22:39:23.446Z,16.83
2018-05-16T22:42:28.964Z,16.13
2018-05-16T22:45:31.110Z,17.13
2018-05-16T22:48:33.252Z,17.77
2018-05-16T22:51:35.395Z,17.77
2018-05-16T22:54:37.426Z,18.33
2018-05-16T22:57:39.511Z,18.20
2018-05-16T23:00:41.616Z,18.40
2018-05-16T23:03:44.059Z,19.10
2018-05-16T23:06:46.145Z,20.93
2018-05-16T23:09:48.253Z,18.97
2018-05-16T23:12:50.263Z,17.03
2018-05-16T23:15:52.324Z,16.63
2018-05-16T23:18:54.675Z,15.93
2018-05-16T23:21:56.744Z,15.60
2018-05-16T23:24:58.758Z,15.60
2018-05-16T23:28:04.718Z,17.83
2018-05-16T23:31:06.792Z,16.93
2018-05-16T23:34:08.855Z,15.80
2018-05-16T23:37:11.372Z,16.10
2018-05-16T23:40:13.525Z,15.50
2018-05-16T23:43:15.773Z,17.07
2018-05-16T23:46:17.852Z,15.50
2018-05-16T23:49:19.932Z,16.10
2018-05-16T23:52:22.979Z,15.27
2018-05-16T23:55:25.173Z,15.37
2018-05-16T23:58:27.222Z,13.53
